This is the latest recevied weather packets stored in our database for station/object K4HOG. If no packets are shown the sender has not sent any weather packets the latest 10 day(s).
| Time | Temp. | Humidity | Pressure | Rain* | Wind** | Luminosity | Snow |
|---|---|---|---|---|---|---|---|
| 1777836927 | 26.67° C | 44% | 1016.3 hPa | 0 mm | - | 267 W/m² | - |
| 1777836622 | 26.67° C | 48% | 1016.6 hPa | 0 mm | - | 818 W/m² | - |
| 1777836318 | 25.56° C | 50% | 1016.6 hPa | 0 mm | - | 809 W/m² | - |
| 1777836014 | 25.56° C | 47% | 1016.6 hPa | 0 mm | - | 212 W/m² | - |
| 1777835711 | 25.56° C | 49% | 1016.8 hPa | 0 mm | - | 647 W/m² | - |
| 1777835408 | 26.11° C | 50% | 1016.8 hPa | 0 mm | - | 220 W/m² | - |
| 1777835105 | 26.67° C | 45% | 1016.9 hPa | 0 mm | - | 275 W/m² | - |
| 1777834802 | 26.67° C | 47% | 1016.9 hPa | 0 mm | - | 883 W/m² | - |
| 1777834498 | 27.22° C | 44% | 1017.1 hPa | 0 mm | - | 423 W/m² | - |
| 1777834197 | 26.67° C | 47% | 1017.3 hPa | 0 mm | - | 921 W/m² | - |
| 1777833894 | 26.11° C | 47% | 1017.3 hPa | 0 mm | - | 481 W/m² | - |
| 1777833591 | 25.56° C | 49% | 1017.6 hPa | 0 mm | - | 901 W/m² | - |
| 1777833287 | 26.11° C | 48% | 1017.4 hPa | 0 mm | - | 275 W/m² | - |
| 1777832984 | 26.11° C | 50% | 1017.4 hPa | 0 mm | - | 673 W/m² | - |
| 1777832683 | 25.56° C | 48% | 1017.6 hPa | 0 mm | - | 915 W/m² | - |
| 1777832380 | 25.56° C | 53% | 1017.5 hPa | 0 mm | - | 881 W/m² | - |
| 1777832077 | 26.11° C | 51% | 1017.4 hPa | 0 mm | - | 951 W/m² | - |
| 1777831773 | 25.56° C | 50% | 1017.5 hPa | 0 mm | - | 932 W/m² | - |
| 1777831472 | 25° C | 55% | 1017.6 hPa | 0 mm | - | 935 W/m² | - |
| 1777831168 | 25° C | 52% | 1017.7 hPa | 0 mm | - | 1034 W/m² | - |
| 1777830866 | 25° C | 52% | 1017.7 hPa | 0 mm | - | 966 W/m² | - |
| 1777830561 | 25.56° C | 53% | 1017.8 hPa | 0 mm | - | 976 W/m² | - |
| 1777830260 | 26.11° C | 49% | 1017.8 hPa | 0 mm | - | 962 W/m² | - |
| 1777829960 | 25° C | 53% | 1017.6 hPa | 0 mm | - | 947 W/m² | - |
| 1777829656 | 25° C | 53% | 1018.2 hPa | 0 mm | - | 918 W/m² | - |
* Rain latest hour (hover to see other rain measurements)
** Current wind speed in m/s (hover to see current wind gust speed)